Accueil
METAR-TAF:

METAR-TAF

Aéroports :

Milan, Italie

Aéroport de Milan-Linate

latitude: 45-26N, longitude: 009-17E, altitude: 107 m

Observation

Le bulletin a été fait il y a 25 minutes, à 10:20 UTC
Vent 5 kt de sud, variant entre sud-est et sud/sud-ouest
Température 24°C
Humidité 57%
Pression 1002 hPa
Visibilité 10 km ou plus
Nuages épars à une hauteur de 3000 ft
Nuages épars à une hauteur de 5000 ft

METAR: LIML 291020Z 18005KT 130V210 9999 SCT030 SCT050 24/15 Q1002 NOSIG

Heure: 12:45 (10:45 UTC)

Prévision

Le bulletin a été fait il y a 5 heures et 45 minutes, à 05:00 UTC
Prévision valable du 29 à 06 UTC au 30 à 06 UTC
Vent 5 kt de direction variable
Visibilité 10 km ou plus
Nuages épars à une hauteur de 3000 ft
Nuages épars à une hauteur de 7000 ft
Temporairement
du 29 à 12 UTC au 30 à 06 UTC
Visibilité: 4000 m
orage, pluie

TAF: LIML 290500Z 2906/3006 VRB05KT 9999 SCT030 SCT070 TEMPO 2912/3006 4000 TSRA

Observations et prévisions météorologiques de plus de 4000 aéroports (messages METAR et TAF).

Les stations disponibles sont représentées par des disques jaunes et rouges sur la carte.

Passer la souris dessus pour voir le nom de la station.

Cliquer dessus pour voir les observations et prévisions météorologiques.

Pour changer de carte: cliquez sur les boutons verts avec une croix noire pour zoomer, sur le bouton vert avec un tiret pour effectuer un zoom arrière, ou sur les flèches vertes pour les cartes adjacentes.


METAR-TAF: